< < Back
Terminal Aerodrome Forecast


Current Version              Previous Versions:   1  2  3  4  5  6  7  8  9  

Terminal Aerodrome Forecast

708
FTUS42 KMLB 300223 AAA
TAFDAB
TAF AMD
KDAB 300223Z 3002/3024 16005KT P6SM VCSH SCT035 BKN080 OVC130
      TEMPO 3002/3003 VRB15G28KT 3SM TSRA BKN020CB OVC050
     FM301200 13007KT P6SM SCT020 BKN035 BKN250
      TEMPO 3012/3015 3SM SHRA BKN020
     FM301500 11010KT P6SM SCT020 BKN035 BKN250
      TEMPO 3015/3018 3SM TSRA BKN025CB
     FM301800 08011KT P6SM VCTS BKN030CB OVC100=

Latest METAR

302
SAUS80 KWBC 300800 RRA
MTRDAB
METAR KDAB 300753Z 09008KT 10SM -RA FEW040 OVC110 25/23 A2999 RMK AO2
RAB31 SLP154 FRQ LTGIC DSNT E CB DSNT E P0001 T02500233 $


USA.gov is the U.S. government's official web portal to all federal, state and local government web resources and services.